This is the latest recevied weather packets stored in our database for station/object KF0EZB. If no packets are shown the sender has not sent any weather packets the latest 10 day(s).
| Time | Temp. | Humidity | Pressure | Rain* | Wind** | Luminosity | Snow |
|---|---|---|---|---|---|---|---|
| 1777515872 | 10° C | 60% | 1018.6 hPa | 0 mm | - | 0 W/m² | - |
| 1777515567 | 10° C | 59% | 1018.5 hPa | 0 mm | - | 0 W/m² | - |
| 1777515265 | 10.56° C | 57% | 1018.5 hPa | 0 mm | - | 0 W/m² | - |
| 1777514961 | 11.11° C | 57% | 1018.2 hPa | 0 mm | - | 0 W/m² | - |
| 1777514657 | 11.11° C | 56% | 1018.3 hPa | 0 mm | - | 0 W/m² | - |
| 1777514355 | 11.67° C | 56% | 1018.2 hPa | 0 mm | - | 0 W/m² | - |
| 1777514051 | 11.67° C | 56% | 1018.1 hPa | 0 mm | - | 0 W/m² | - |
| 1777513749 | 11.67° C | 56% | 1018 hPa | 0 mm | - | 0 W/m² | - |
| 1777513445 | 12.22° C | 55% | 1017.9 hPa | 0 mm | - | 0 W/m² | - |
| 1777513141 | 12.22° C | 55% | 1018 hPa | 0 mm | - | 0 W/m² | - |
| 1777512831 | 12.22° C | 54% | 1018 hPa | 0 mm | - | 0 W/m² | - |
| 1777511922 | 13.33° C | 51% | 1017.5 hPa | 0 mm | - | 4 W/m² | - |
| 1777511318 | 13.89° C | 50% | 1017.1 hPa | 0 mm | - | 11 W/m² | - |
| 1777509800 | 15° C | 45% | 1017.1 hPa | 0 mm | - | 29 W/m² | - |
| 1777505857 | 16.11° C | 39% | 1017.5 hPa | 0 mm | - | 230 W/m² | - |
| 1777503125 | 16.11° C | 43% | 1017.4 hPa | 0 mm | - | 222 W/m² | - |
| 1777502823 | 16.11° C | 41% | 1017.7 hPa | 0 mm | - | 276 W/m² | - |
| 1777502520 | 16.11° C | 42% | 1017.4 hPa | 0 mm | - | 195 W/m² | - |
| 1777502216 | 16.11° C | 42% | 1017.5 hPa | 0 mm | - | 184 W/m² | - |
| 1777501914 | 16.11° C | 43% | 1017.5 hPa | 0 mm | - | 212 W/m² | - |
| 1777501611 | 16.11° C | 44% | 1017.3 hPa | 0 mm | - | 270 W/m² | - |
| 1777500703 | 16.11° C | 40% | 1017.6 hPa | 0 mm | - | 201 W/m² | - |
| 1777493426 | 16.67° C | 45% | 1019.4 hPa | 0 mm | - | 486 W/m² | - |
| 1777491302 | 15° C | 48% | 1019.9 hPa | 0 mm | - | 579 W/m² | - |
| 1777490693 | 15° C | 50% | 1019.9 hPa | 0 mm | - | 471 W/m² | - |
* Rain latest hour (hover to see other rain measurements)
** Current wind speed in m/s (hover to see current wind gust speed)